Cemal, Russia
Current Conditions -  °F | °C
As of 4:30 AM on Sunday 23 Nov 2014 (Local Time) from UNBB Reporting Station
Blowing Snow Blowing Snow  
Wind Chill:   Ceiling: 2600
Heat Index: 23°   Visibility: 6mi
Dew Point: 18°   Wind: 20mph
Humidity: 80%   Direction: 210°SSW
Pressure: 29.97"   Gusts: NA
Location:  51.43°N, 86°E
Report Text: UNBB 222130Z 21009MPS 9999 DRSN BKN026 M05/M08 Q1015 NOSIG RMKQFE739/0985 24800550
Loading
Personal Weather Stations






























Interactive Weather Map New forecast layout! Learn more

10-Day Weather Forecast

Advertisements
Track Severe Weather on mobile